Time;durP1;ratioP1;P1;durP2;ratioP2;P2;SDS_P1;SDS_P2;PMS_P1;PMS_P2;Temp;Humidity;BMP_temperature;BMP_pressure;BME280_temperature;BME280_humidity;BME280_pressure;Samples;Min_cycle;Max_cycle;Signal;HPM_P1;HPM_P2
2022/09/22 00:01:33;;;;;;;14.32;2.95;;;17.40;99.90;;;;;;5027091;28;20887;-88
2022/09/22 00:04:04;;;;;;;13.65;2.97;;;17.30;99.90;;;;;;5026035;28;20386;-86
2022/09/22 00:06:36;;;;;;;10.43;2.45;;;17.30;99.90;;;;;;5011807;28;20514;-79
2022/09/22 00:09:04;;;;;;;11.57;2.60;;;17.40;99.90;;;;;;5017980;28;20389;-78
2022/09/22 00:11:35;;;;;;;15.43;2.75;;;17.40;99.90;;;;;;5026998;28;20414;-78
2022/09/22 00:14:20;;;;;;;12.05;2.55;;;17.50;99.90;;;;;;5030766;28;20512;-78
2022/09/22 00:17:01;;;;;;;12.13;2.70;;;17.50;99.90;;;;;;5018788;28;20759;-77
2022/09/22 00:19:37;;;;;;;12.50;2.78;;;17.70;99.90;;;;;;5022945;28;20389;-84
2022/09/22 00:22:05;;;;;;;11.43;2.45;;;17.90;99.90;;;;;;5034841;28;21192;-77
2022/09/22 00:24:33;;;;;;;8.95;2.38;;;18.20;99.90;;;;;;5032684;28;20901;-76
2022/09/22 00:27:01;;;;;;;11.00;2.30;;;18.40;99.90;;;;;;5032117;28;20409;-83
2022/09/22 00:29:29;;;;;;;11.02;2.50;;;18.70;99.90;;;;;;5031138;28;20389;-76
2022/09/22 00:31:57;;;;;;;10.87;3.27;;;18.90;99.90;;;;;;5020777;28;20418;-77
2022/09/22 00:34:27;;;;;;;11.43;3.33;;;19.00;99.90;;;;;;5025816;28;20384;-76
2022/09/22 00:36:55;;;;;;;11.07;2.75;;;19.00;99.90;;;;;;5037275;28;20397;-76
2022/09/22 00:39:22;;;;;;;9.77;2.70;;;19.00;99.90;;;;;;5023427;28;20390;-77
2022/09/22 00:41:51;;;;;;;12.00;2.85;;;19.00;99.90;;;;;;5029033;28;20385;-79
2022/09/22 00:44:33;;;;;;;11.35;3.10;;;19.10;99.90;;;;;;5012581;28;20746;-77
2022/09/22 00:47:27;;;;;;;13.10;3.20;;;19.10;99.90;;;;;;5020785;28;20415;-87
2022/09/22 00:50:03;;;;;;;13.23;3.45;;;19.10;99.90;;;;;;5029322;28;20369;-77
2022/09/22 00:52:36;;;;;;;11.02;3.30;;;19.20;99.90;;;;;;5011899;28;20784;-77
2022/09/22 00:55:27;;;;;;;11.00;2.97;;;18.90;99.90;;;;;;5020589;28;20755;-77
2022/09/22 00:57:56;;;;;;;13.13;3.10;;;18.60;99.90;;;;;;5026461;28;20402;-84
2022/09/22 01:00:23;;;;;;;10.40;2.70;;;18.40;99.90;;;;;;5031212;28;20465;-78
2022/09/22 01:02:54;;;;;;;11.43;2.80;;;18.50;99.90;;;;;;5030313;28;20370;-89
2022/09/22 01:05:22;;;;;;;11.10;2.85;;;18.60;99.90;;;;;;5031584;28;20448;-81
2022/09/22 01:07:49;;;;;;;11.32;2.22;;;18.60;99.90;;;;;;5023739;28;20389;-79
2022/09/22 01:10:17;;;;;;;8.27;2.30;;;18.90;99.90;;;;;;5025019;28;20391;-82
2022/09/22 01:13:23;;;;;;;8.98;2.00;;;19.20;99.90;;;;;;5030136;28;20373;-77
2022/09/22 01:16:03;;;;;;;9.80;1.90;;;19.60;99.90;;;;;;5028889;28;20812;-82
2022/09/22 01:18:43;;;;;;;7.18;1.85;;;19.60;99.90;;;;;;5011748;28;20786;-82
2022/09/22 01:21:41;;;;;;;7.23;1.70;;;19.40;99.90;;;;;;5018364;28;20413;-82
2022/09/22 01:25:04;;;;;;;7.82;1.73;;;19.40;99.90;;;;;;4971576;28;20400;-83
2022/09/22 01:27:58;;;;;;;6.75;1.80;;;19.20;99.90;;;;;;4952601;28;20625;-87
2022/09/22 01:30:29;;;;;;;7.05;1.85;;;19.30;99.90;;;;;;4950071;28;20419;-78
2022/09/22 01:32:59;;;;;;;6.78;2.00;;;19.40;99.90;;;;;;4949435;28;20412;-77
2022/09/22 01:35:30;;;;;;;7.82;1.83;;;19.40;99.90;;;;;;4950026;28;20521;-86
2022/09/22 01:38:23;;;;;;;7.43;2.10;;;19.40;99.90;;;;;;4954500;28;20414;-80
2022/09/22 01:41:06;;;;;;;8.30;2.30;;;19.50;99.90;;;;;;4955787;28;20415;-88
2022/09/22 01:43:45;;;;;;;9.95;2.17;;;19.60;99.90;;;;;;4951841;28;20494;-84
2022/09/22 01:46:33;;;;;;;7.15;1.98;;;19.80;99.90;;;;;;4951979;28;20844;-87
2022/09/22 01:49:07;;;;;;;10.10;2.30;;;19.80;99.90;;;;;;4945086;28;20388;-78
2022/09/22 01:51:43;;;;;;;6.68;2.00;;;19.90;99.90;;;;;;4950143;28;20404;-84
2022/09/22 01:54:33;;;;;;;6.40;2.03;;;20.00;99.90;;;;;;4949773;28;20457;-90
2022/09/22 01:57:13;;;;;;;7.03;1.83;;;20.10;99.90;;;;;;4951970;28;20400;-86
2022/09/22 01:59:43;;;;;;;5.53;1.80;;;20.20;99.90;;;;;;4977983;28;20386;-81
2022/09/22 02:03:05;;;;;;;8.15;2.10;;;20.30;99.90;;;;;;5031705;28;20435;-90
2022/09/22 02:05:48;;;;;;;5.35;1.80;;;20.40;99.90;;;;;;4986506;28;20417;-82
2022/09/22 02:08:35;;;;;;;7.65;1.90;;;20.30;99.90;;;;;;4977739;28;20400;-83
2022/09/22 02:11:14;;;;;;;6.22;1.90;;;20.30;99.90;;;;;;4982849;28;20391;-85
2022/09/22 02:13:43;;;;;;;7.10;2.00;;;20.30;99.90;;;;;;4978570;28;20400;-78
2022/09/22 02:16:13;;;;;;;5.90;1.70;;;20.50;99.90;;;;;;4987584;28;20853;-88
2022/09/22 02:18:55;;;;;;;6.68;1.83;;;20.70;99.90;;;;;;4989034;28;20384;-84
2022/09/22 02:21:26;;;;;;;4.68;1.65;;;20.90;99.90;;;;;;4971663;28;20401;-82
2022/09/22 02:23:54;;;;;;;7.32;2.53;;;20.90;99.40;;;;;;4985630;28;20388;-82
2022/09/22 02:26:25;;;;;;;6.47;2.30;;;20.60;99.70;;;;;;4988771;28;20412;-80
2022/09/22 02:29:07;;;;;;;8.95;3.33;;;20.60;99.90;;;;;;4991705;28;20781;-83
2022/09/22 02:31:39;;;;;;;11.93;3.67;;;21.00;99.90;;;;;;4991955;28;20401;-87
2022/09/22 02:34:07;;;;;;;6.57;2.58;;;21.40;99.90;;;;;;4992700;28;20397;-87
2022/09/22 02:36:54;;;;;;;6.95;2.13;;;21.50;99.90;;;;;;4993171;28;20393;-81
2022/09/22 02:39:52;;;;;;;7.07;2.30;;;21.50;99.90;;;;;;5005663;28;20383;-82
2022/09/22 02:42:37;;;;;;;4.93;1.80;;;21.40;99.60;;;;;;5043037;28;20460;-85
2022/09/22 02:45:28;;;;;;;5.30;1.50;;;21.30;99.90;;;;;;5044492;28;20406;-81
2022/09/22 02:48:09;;;;;;;4.97;1.65;;;21.00;99.90;;;;;;5031209;28;20841;-84
2022/09/22 02:50:36;;;;;;;4.50;1.60;;;21.10;99.90;;;;;;5036226;28;20389;-82
2022/09/22 02:53:10;;;;;;;6.55;1.85;;;20.90;99.90;;;;;;5026044;28;20374;-83
2022/09/22 02:55:37;;;;;;;5.05;1.67;;;20.80;99.90;;;;;;5035555;28;20397;-83
2022/09/22 02:58:04;;;;;;;6.13;1.85;;;20.80;99.90;;;;;;5042100;28;20390;-82
2022/09/22 03:00:31;;;;;;;5.43;1.70;;;20.60;99.90;;;;;;5033666;28;21166;-82
2022/09/22 03:03:00;;;;;;;5.63;1.65;;;20.50;99.90;;;;;;5039427;28;20501;-80
2022/09/22 03:05:27;;;;;;;4.55;1.80;;;20.50;99.90;;;;;;5047365;28;20415;-82
2022/09/22 03:07:55;;;;;;;6.40;1.80;;;20.80;99.90;;;;;;5041044;28;20383;-80
2022/09/22 03:10:22;;;;;;;5.10;1.75;;;20.90;99.90;;;;;;5030548;28;20391;-87
2022/09/22 03:12:49;;;;;;;3.80;1.43;;;20.90;99.90;;;;;;5014350;28;20497;-89
2022/09/22 03:15:17;;;;;;;6.90;1.40;;;20.80;99.90;;;;;;5013632;28;20418;-83
2022/09/22 03:17:46;;;;;;;3.78;1.50;;;20.70;99.90;;;;;;5000726;28;20441;-82
2022/09/22 03:20:13;;;;;;;4.25;1.50;;;20.80;99.90;;;;;;5013683;28;20410;-83
2022/09/22 03:22:41;;;;;;;6.33;1.80;;;20.80;99.90;;;;;;5010955;28;20387;-83
2022/09/22 03:25:14;;;;;;;3.47;1.70;;;20.70;99.90;;;;;;5012958;28;20407;-85
2022/09/22 03:27:41;;;;;;;3.97;1.50;;;20.70;99.90;;;;;;5019175;28;20752;-86
2022/09/22 03:30:11;;;;;;;9.88;4.90;;;20.70;99.90;;;;;;5014389;28;20391;-87
2022/09/22 03:32:41;;;;;;;4.50;2.30;;;20.70;99.90;;;;;;4997924;28;20458;-81
2022/09/22 03:35:09;;;;;;;3.53;1.48;;;20.80;99.90;;;;;;5024426;28;20389;-81
2022/09/22 03:37:36;;;;;;;3.33;1.38;;;20.90;99.90;;;;;;5015039;28;20391;-86
2022/09/22 03:40:06;;;;;;;5.22;1.35;;;20.80;99.90;;;;;;5015379;28;20391;-83
2022/09/22 03:42:36;;;;;;;3.88;1.25;;;20.80;99.90;;;;;;5014020;28;20923;-81
2022/09/22 03:45:04;;;;;;;6.25;1.55;;;20.70;99.90;;;;;;5025291;28;20964;-79
2022/09/22 03:47:31;;;;;;;2.53;1.40;;;20.60;99.90;;;;;;5012711;28;21186;-86
2022/09/22 03:49:58;;;;;;;4.32;1.50;;;20.30;99.90;;;;;;5013638;28;20443;-82
2022/09/22 03:52:28;;;;;;;3.07;1.40;;;20.20;99.90;;;;;;5014384;28;20462;-82
2022/09/22 03:54:55;;;;;;;4.50;1.80;;;20.10;99.90;;;;;;5014211;28;20450;-83
2022/09/22 03:57:22;;;;;;;4.88;1.90;;;20.20;99.90;;;;;;5014528;28;20510;-82
2022/09/22 03:59:49;;;;;;;4.32;1.80;;;20.10;99.90;;;;;;5016979;28;20411;-81
2022/09/22 04:02:17;;;;;;;3.97;1.60;;;20.10;99.90;;;;;;5010071;28;20392;-84
2022/09/22 04:04:44;;;;;;;3.85;1.50;;;20.20;99.90;;;;;;5016820;28;20941;-85
2022/09/22 04:07:11;;;;;;;5.30;1.60;;;19.80;99.90;;;;;;5009719;28;20395;-87
2022/09/22 04:09:38;;;;;;;4.45;1.80;;;19.80;99.90;;;;;;5004564;28;20745;-82
2022/09/22 04:12:06;;;;;;;4.20;1.60;;;19.80;99.90;;;;;;4998532;28;20849;-81
2022/09/22 04:14:33;;;;;;;5.43;1.70;;;20.00;99.90;;;;;;5008378;28;20464;-83
2022/09/22 04:16:59;;;;;;;4.70;1.60;;;19.90;99.90;;;;;;5002545;28;20809;-85
2022/09/22 04:19:27;;;;;;;4.40;1.70;;;20.00;99.90;;;;;;5009751;28;20454;-84
2022/09/22 04:21:55;;;;;;;3.95;1.60;;;19.90;99.90;;;;;;5026789;28;20389;-83
2022/09/22 04:24:23;;;;;;;4.78;1.70;;;19.80;99.90;;;;;;5014566;28;20411;-82
2022/09/22 04:26:50;;;;;;;5.20;1.73;;;20.00;99.90;;;;;;5010294;28;20420;-85
2022/09/22 04:29:17;;;;;;;4.63;1.60;;;20.00;99.90;;;;;;5009543;28;20387;-82
2022/09/22 04:31:46;;;;;;;6.53;1.90;;;19.70;99.90;;;;;;5012363;28;20403;-82
2022/09/22 04:34:13;;;;;;;5.07;1.85;;;19.60;99.90;;;;;;5024798;28;20406;-83
2022/09/22 04:36:40;;;;;;;5.03;1.70;;;19.60;99.90;;;;;;5034033;28;20378;-88
2022/09/22 04:39:07;;;;;;;6.90;1.95;;;19.60;99.90;;;;;;5032775;28;20384;-84
2022/09/22 04:41:35;;;;;;;5.45;2.00;;;19.50;99.90;;;;;;5034513;28;20389;-85
2022/09/22 04:44:02;;;;;;;5.32;1.80;;;19.60;99.90;;;;;;5033800;28;20879;-81
2022/09/22 04:46:29;;;;;;;7.85;2.00;;;19.90;99.90;;;;;;5033139;28;20401;-82
2022/09/22 04:48:57;;;;;;;6.47;1.70;;;20.00;99.90;;;;;;5034666;28;20373;-87
2022/09/22 04:51:24;;;;;;;6.38;1.73;;;20.10;99.90;;;;;;5034045;28;20449;-84
2022/09/22 04:53:51;;;;;;;5.30;1.90;;;20.10;99.90;;;;;;5035030;28;20451;-88
2022/09/22 04:56:18;;;;;;;6.43;1.85;;;20.00;99.90;;;;;;5033095;28;20729;-86
2022/09/22 04:58:46;;;;;;;4.70;1.73;;;20.00;99.90;;;;;;5036391;28;20370;-88
2022/09/22 05:01:15;;;;;;;5.22;1.88;;;19.90;99.90;;;;;;5021962;28;20493;-80
2022/09/22 05:03:42;;;;;;;5.43;1.67;;;19.80;99.90;;;;;;4958183;28;20843;-89
2022/09/22 05:06:13;;;;;;;5.30;1.67;;;20.10;99.90;;;;;;4977659;28;20434;-87
2022/09/22 05:08:41;;;;;;;5.32;1.50;;;20.60;99.90;;;;;;4979359;28;20449;-85
2022/09/22 05:11:08;;;;;;;5.90;1.70;;;21.10;99.90;;;;;;4975844;28;20740;-84
2022/09/22 05:13:39;;;;;;;6.78;1.90;;;21.10;99.90;;;;;;4976304;28;20441;-83
2022/09/22 05:16:07;;;;;;;4.80;1.80;;;21.30;99.90;;;;;;4987446;28;20386;-84
2022/09/22 05:18:34;;;;;;;5.53;1.83;;;21.30;99.90;;;;;;4976252;28;20485;-83
2022/09/22 05:21:12;;;;;;;6.97;1.80;;;21.70;99.90;;;;;;4974673;28;21231;-81
2022/09/22 05:23:39;;;;;;;7.28;1.83;;;22.30;99.90;;;;;;4957185;28;20398;-85
2022/09/22 05:26:06;;;;;;;5.10;1.73;;;22.60;99.30;;;;;;4973115;28;20411;-88
2022/09/22 05:28:33;;;;;;;7.43;1.88;;;22.20;98.90;;;;;;4974491;28;20441;-82
2022/09/22 05:31:00;;;;;;;5.72;1.73;;;21.80;99.90;;;;;;4974801;28;20850;-82
2022/09/22 05:33:28;;;;;;;4.93;1.90;;;21.30;99.70;;;;;;4976027;28;20402;-85
2022/09/22 05:35:55;;;;;;;6.55;1.80;;;21.00;99.90;;;;;;4975956;28;20387;-82
2022/09/22 05:38:23;;;;;;;8.13;2.15;;;20.90;99.90;;;;;;4979980;28;20382;-87
2022/09/22 05:40:51;;;;;;;5.45;1.75;;;20.60;99.90;;;;;;4997580;28;20394;-85
2022/09/22 05:43:18;;;;;;;6.57;1.90;;;20.30;99.90;;;;;;5035250;28;20377;-89
2022/09/22 05:45:45;;;;;;;6.05;2.10;;;20.00;99.90;;;;;;5034091;28;20405;-81
2022/09/22 05:48:12;;;;;;;5.93;2.10;;;19.90;99.90;;;;;;5019511;28;20385;-83
2022/09/22 05:50:40;;;;;;;5.95;2.15;;;19.70;99.90;;;;;;5034293;28;20378;-86
2022/09/22 05:53:11;;;;;;;8.65;2.38;;;19.60;99.90;;;;;;5017844;28;20385;-83
2022/09/22 05:55:39;;;;;;;7.95;2.15;;;19.50;99.90;;;;;;5036564;28;20393;-88
2022/09/22 05:58:12;;;;;;;5.63;1.98;;;19.40;99.90;;;;;;5037925;28;20450;-85
2022/09/22 06:00:42;;;;;;;8.18;2.50;;;19.30;99.90;;;;;;5025334;28;20383;-88
2022/09/22 06:03:09;;;;;;;6.67;2.20;;;19.30;99.90;;;;;;5034624;28;20865;-86
2022/09/22 06:05:36;;;;;;;4.47;1.70;;;19.30;99.90;;;;;;5038444;28;20409;-87
2022/09/22 06:08:08;;;;;;;4.45;1.75;;;19.40;99.90;;;;;;5040130;28;20867;-89
2022/09/22 06:10:44;;;;;;;4.30;1.60;;;19.40;99.90;;;;;;5039511;28;20381;-84
2022/09/22 06:13:11;;;;;;;6.45;1.90;;;19.20;99.90;;;;;;5042458;28;20373;-88
2022/09/22 06:15:39;;;;;;;4.72;1.70;;;19.20;99.90;;;;;;5045801;28;20457;-84
2022/09/22 06:18:10;;;;;;;5.32;1.80;;;19.30;99.90;;;;;;5045325;28;20389;-86
2022/09/22 06:20:37;;;;;;;4.50;1.80;;;19.50;99.90;;;;;;5040215;28;20745;-89
2022/09/22 06:23:05;;;;;;;5.13;1.60;;;19.90;99.90;;;;;;5024605;28;20485;-86
2022/09/22 06:25:32;;;;;;;5.45;1.85;;;19.90;99.90;;;;;;5039115;28;20800;-86
2022/09/22 06:28:06;;;;;;;4.40;1.75;;;19.50;99.90;;;;;;5055418;28;20416;-88
2022/09/22 06:30:36;;;;;;;6.68;1.80;;;19.10;99.90;;;;;;5041374;28;20378;-87
2022/09/22 06:33:06;;;;;;;8.93;3.10;;;18.90;99.90;;;;;;5040512;28;20417;-85
2022/09/22 06:35:36;;;;;;;7.90;2.50;;;18.60;99.90;;;;;;5018183;28;20389;-87
2022/09/22 06:38:07;;;;;;;5.60;2.30;;;18.40;99.90;;;;;;5046177;28;20404;-85
2022/09/22 06:40:38;;;;;;;7.22;2.53;;;18.30;99.90;;;;;;5047339;28;20440;-88
2022/09/22 06:43:14;;;;;;;9.55;3.35;;;18.20;99.90;;;;;;5040718;28;20382;-85
2022/09/22 06:45:42;;;;;;;7.95;2.65;;;18.20;99.90;;;;;;5039971;28;20464;-88
2022/09/22 06:48:12;;;;;;;8.53;2.20;;;18.20;99.90;;;;;;5041342;28;20765;-85
2022/09/22 06:50:52;;;;;;;6.53;2.10;;;18.10;99.90;;;;;;5029241;28;20372;-82
2022/09/22 06:53:19;;;;;;;6.30;1.98;;;18.10;99.90;;;;;;5038739;28;20406;-89
2022/09/22 06:55:47;;;;;;;6.88;2.15;;;18.10;99.90;;;;;;5040657;28;20389;-88
2022/09/22 06:58:15;;;;;;;7.35;2.20;;;18.10;99.90;;;;;;5021367;28;20394;-81
2022/09/22 07:00:42;;;;;;;9.70;2.33;;;18.10;99.90;;;;;;5039566;28;20381;-86
2022/09/22 07:03:19;;;;;;;7.53;2.22;;;18.10;99.90;;;;;;5039230;28;20417;-87
2022/09/22 07:06:02;;;;;;;6.53;2.00;;;18.00;99.90;;;;;;5024831;28;20401;-82
2022/09/22 07:08:30;;;;;;;6.68;1.95;;;18.00;99.90;;;;;;5039028;28;20408;-86
2022/09/22 07:11:03;;;;;;;9.23;2.33;;;18.10;99.90;;;;;;5036685;28;20466;-84
2022/09/22 07:13:32;;;;;;;6.88;2.30;;;18.00;99.90;;;;;;5037132;28;20366;-84
2022/09/22 07:16:01;;;;;;;6.65;2.10;;;18.00;99.90;;;;;;5034524;28;20400;-87
2022/09/22 07:18:30;;;;;;;6.78;2.17;;;18.00;99.90;;;;;;5036092;28;20373;-88
2022/09/22 07:21:13;;;;;;;7.10;2.40;;;17.90;99.90;;;;;;5037773;28;20377;-88
2022/09/22 07:23:40;;;;;;;7.55;2.42;;;17.90;99.90;;;;;;5037730;28;20373;-83
2022/09/22 07:26:14;;;;;;;7.22;2.42;;;17.90;99.90;;;;;;5036936;28;20397;-87
2022/09/22 07:28:42;;;;;;;9.32;2.47;;;17.90;99.90;;;;;;5018245;28;20412;-87
2022/09/22 07:31:13;;;;;;;8.20;2.17;;;17.80;99.90;;;;;;5017445;28;20722;-86
2022/09/22 07:33:42;;;;;;;7.53;2.40;;;17.80;99.90;;;;;;5035153;28;20373;-82
2022/09/22 07:36:21;;;;;;;7.80;2.30;;;17.80;99.90;;;;;;5037610;28;20401;-87
2022/09/22 07:38:50;;;;;;;9.70;2.53;;;17.80;99.90;;;;;;5032903;28;20907;-88
2022/09/22 07:41:30;;;;;;;6.38;1.92;;;17.70;99.90;;;;;;5034746;28;20424;-85
2022/09/22 07:46:49;;;;;;;8.95;2.10;;;17.60;99.90;;;;;;4951598;28;20415;-83
2022/09/22 07:49:20;;;;;;;5.97;1.95;;;17.50;99.90;;;;;;4953983;28;20396;-87
2022/09/22 07:51:49;;;;;;;7.78;2.03;;;17.50;99.90;;;;;;4940691;28;20503;-88
2022/09/22 07:54:16;;;;;;;8.75;2.40;;;17.50;99.90;;;;;;4951295;28;20427;-85
2022/09/22 07:56:44;;;;;;;9.00;2.17;;;17.50;99.90;;;;;;4960303;28;20506;-82
2022/09/22 07:59:13;;;;;;;6.88;2.10;;;17.50;99.90;;;;;;4961197;28;20427;-86
2022/09/22 08:01:49;;;;;;;10.75;2.53;;;17.50;99.90;;;;;;4947546;28;20406;-88
2022/09/22 08:04:19;;;;;;;9.82;2.35;;;17.50;99.90;;;;;;4962570;28;20409;-86
2022/09/22 08:06:48;;;;;;;7.90;1.85;;;17.40;99.90;;;;;;4965190;28;20421;-85
2022/09/22 08:09:17;;;;;;;8.60;2.13;;;17.40;99.90;;;;;;4960087;28;20435;-80
2022/09/22 08:11:47;;;;;;;9.63;2.08;;;17.40;99.90;;;;;;4955177;28;20684;-84
2022/09/22 08:14:21;;;;;;;6.18;1.77;;;17.40;99.90;;;;;;4952428;28;20383;-81
2022/09/22 08:16:50;;;;;;;6.38;1.80;;;17.30;99.90;;;;;;4950860;28;20466;-87
2022/09/22 08:19:18;;;;;;;8.80;1.67;;;17.20;99.90;;;;;;4970934;28;20390;-84
2022/09/22 08:21:47;;;;;;;7.00;1.60;;;17.20;99.90;;;;;;4971960;28;20445;-78
2022/09/22 08:24:19;;;;;;;6.68;1.75;;;17.10;99.90;;;;;;5004070;28;20393;-87
2022/09/22 08:26:48;;;;;;;7.10;2.08;;;17.00;99.90;;;;;;5031583;28;20405;-85
2022/09/22 08:29:23;;;;;;;7.50;2.53;;;17.10;99.90;;;;;;5028715;28;20379;-76
2022/09/22 08:31:50;;;;;;;7.18;2.25;;;17.00;99.90;;;;;;5021456;28;20409;-91
2022/09/22 08:34:17;;;;;;;7.85;2.35;;;17.00;99.90;;;;;;5019777;28;20890;-82
2022/09/22 08:36:47;;;;;;;7.30;2.47;;;17.00;99.90;;;;;;5013977;28;20880;-81
2022/09/22 08:39:15;;;;;;;16.63;7.20;;;17.00;99.90;;;;;;5029220;28;20435;-84
2022/09/22 08:42:17;;;;;;;9.68;4.22;;;17.00;99.90;;;;;;5015428;28;20387;-87
2022/09/22 08:44:59;;;;;;;5.30;1.85;;;17.00;99.90;;;;;;4933615;29;20438;-86
2022/09/22 08:53:50;;;;;;;5.60;2.00;;;16.90;99.90;;;;;;4933428;29;20436;-86
2022/09/22 08:56:45;;;;;;;4.68;2.20;;;16.80;99.90;;;;;;4947920;29;20481;-85
2022/09/22 08:59:45;;;;;;;6.28;2.83;;;16.70;99.90;;;;;;4941836;29;20402;-83
2022/09/22 09:02:57;;;;;;;6.53;2.70;;;16.70;99.90;;;;;;4938024;29;20456;-78
2022/09/22 09:05:39;;;;;;;6.50;2.50;;;16.60;99.90;;;;;;4874312;29;20411;-79
2022/09/22 09:08:42;;;;;;;5.10;2.00;;;16.60;99.90;;;;;;4874688;29;20498;-90
2022/09/22 09:11:35;;;;;;;5.13;1.75;;;16.60;99.90;;;;;;4875769;29;20421;-79
2022/09/22 09:14:11;;;;;;;4.93;1.80;;;16.60;99.90;;;;;;4875650;29;20437;-82
2022/09/22 09:17:08;;;;;;;6.32;1.80;;;16.60;99.90;;;;;;4876199;29;20410;-87
2022/09/22 09:19:42;;;;;;;4.88;1.98;;;16.60;99.90;;;;;;4874663;29;20506;-79
2022/09/22 09:22:24;;;;;;;7.53;1.87;;;16.50;99.90;;;;;;4928150;29;20437;-90
2022/09/22 09:25:24;;;;;;;6.45;1.90;;;16.50;99.90;;;;;;4930505;29;20389;-85
2022/09/22 09:27:56;;;;;;;6.72;1.90;;;16.50;99.90;;;;;;4911404;29;20494;-87
2022/09/22 09:30:23;;;;;;;6.65;2.40;;;16.50;99.90;;;;;;4899428;29;20405;-90
2022/09/22 09:32:52;;;;;;;6.43;2.80;;;16.50;99.90;;;;;;4899058;29;20977;-87
2022/09/22 09:35:34;;;;;;;7.38;2.53;;;16.50;99.90;;;;;;4898007;29;20409;-79
2022/09/22 09:38:08;;;;;;;8.13;2.42;;;16.50;99.90;;;;;;4900416;28;20401;-84
2022/09/22 09:40:35;;;;;;;6.38;2.55;;;16.50;99.90;;;;;;4945484;28;20386;-92
2022/09/22 09:43:05;;;;;;;7.53;2.30;;;16.40;99.90;;;;;;4975321;28;20409;-84
2022/09/22 09:46:05;;;;;;;6.95;2.08;;;16.40;99.90;;;;;;4972229;28;20896;-80
2022/09/22 09:49:15;;;;;;;7.00;2.00;;;16.30;99.90;;;;;;4964529;28;20403;-79
2022/09/22 09:51:49;;;;;;;6.83;2.07;;;16.30;99.90;;;;;;4979877;28;20898;-79
2022/09/22 09:54:17;;;;;;;10.32;1.88;;;16.30;99.90;;;;;;4974110;28;20481;-88
2022/09/22 09:57:05;;;;;;;6.20;1.90;;;16.30;99.90;;;;;;4975458;28;20429;-80
2022/09/22 10:02:26;;;;;;;7.40;1.85;;;16.30;99.90;;;;;;4974721;28;20385;-82
2022/09/22 10:05:16;;;;;;;7.13;1.80;;;16.30;99.90;;;;;;4977546;28;20394;-87
2022/09/22 10:07:47;;;;;;;5.50;1.90;;;16.30;99.90;;;;;;4985369;28;20384;-80
2022/09/22 10:10:30;;;;;;;4.57;1.85;;;16.30;99.90;;;;;;4985898;28;20379;-79
2022/09/22 10:13:03;;;;;;;5.43;1.70;;;16.30;99.90;;;;;;4985013;28;20388;-82
2022/09/22 10:15:35;;;;;;;6.47;1.90;;;16.30;99.90;;;;;;4991812;28;20390;-74
2022/09/22 10:18:23;;;;;;;12.63;6.15;;;16.30;99.90;;;;;;4997167;28;20384;-83
2022/09/22 10:21:06;;;;;;;11.20;6.03;;;16.30;99.90;;;;;;4990217;28;20392;-79
2022/09/22 10:23:35;;;;;;;6.45;2.40;;;16.30;99.90;;;;;;4988072;28;20475;-83
2022/09/22 10:26:28;;;;;;;6.77;2.30;;;16.30;99.90;;;;;;4994275;28;20412;-86
2022/09/22 10:29:17;;;;;;;9.85;3.63;;;16.30;99.90;;;;;;4996650;28;20420;-76
2022/09/22 10:32:04;;;;;;;8.85;2.67;;;16.30;99.90;;;;;;5009031;28;20463;-84
2022/09/22 10:34:33;;;;;;;12.30;5.60;;;16.30;99.90;;;;;;5031507;28;20437;-82
2022/09/22 10:37:02;;;;;;;7.13;2.63;;;16.40;99.90;;;;;;4990980;28;20818;-81
2022/09/22 10:39:38;;;;;;;7.83;3.47;;;16.30;99.90;;;;;;5019512;28;20404;-80
2022/09/22 10:42:14;;;;;;;11.70;4.90;;;16.30;99.90;;;;;;5039050;28;20390;-76
2022/09/22 10:44:42;;;;;;;11.90;4.70;;;16.30;99.90;;;;;;5031317;28;20400;-86
2022/09/22 10:47:09;;;;;;;7.90;2.60;;;16.40;99.90;;;;;;5018939;28;20413;-84
2022/09/22 10:50:13;;;;;;;11.50;3.40;;;16.40;99.90;;;;;;5021339;28;20751;-76
2022/09/22 10:52:53;;;;;;;8.07;2.33;;;16.40;99.90;;;;;;5028567;28;20482;-83
2022/09/22 10:55:36;;;;;;;6.47;2.15;;;16.30;99.90;;;;;;5030136;28;20760;-77
2022/09/22 10:58:35;;;;;;;7.18;1.98;;;16.30;99.90;;;;;;5028429;28;20490;-78
2022/09/22 11:01:28;;;;;;;6.45;2.35;;;16.30;99.90;;;;;;5017928;28;20386;-81
2022/09/22 11:04:27;;;;;;;7.07;2.08;;;16.30;99.90;;;;;;4971142;28;20906;-77
2022/09/22 11:12:59;;;;;;;9.20;2.00;;;16.20;99.90;;;;;;4970630;28;20922;-82
2022/09/22 11:15:57;;;;;;;17.17;6.95;;;16.20;99.90;;;;;;4971111;28;20394;-76
2022/09/22 11:19:20;;;;;;;8.90;3.45;;;16.20;99.90;;;;;;4965608;28;20413;-83
2022/09/22 11:22:34;;;;;;;7.25;2.28;;;16.10;99.90;;;;;;4894532;29;20408;-84
2022/09/22 11:25:28;;;;;;;7.72;2.13;;;16.10;99.90;;;;;;4888014;29;20433;-85
2022/09/22 11:28:03;;;;;;;10.00;3.60;;;16.00;99.90;;;;;;4889025;29;20794;-83
2022/09/22 11:30:51;;;;;;;9.73;3.05;;;16.00;99.90;;;;;;4894557;29;20401;-83
2022/09/22 11:33:59;;;;;;;7.28;2.55;;;15.90;99.90;;;;;;4894911;29;20413;-84
2022/09/22 11:36:56;;;;;;;8.25;3.17;;;15.90;99.90;;;;;;4852440;29;20956;-84
2022/09/22 11:39:38;;;;;;;9.65;2.72;;;15.90;99.90;;;;;;4853749;29;20455;-85
2022/09/22 11:42:24;;;;;;;7.13;2.33;;;15.90;99.90;;;;;;4911979;29;20490;-85
2022/09/22 11:45:15;;;;;;;7.82;2.40;;;15.90;99.90;;;;;;4901651;29;20433;-83
2022/09/22 11:48:15;;;;;;;5.65;2.50;;;15.90;99.90;;;;;;4900256;29;20415;-82
2022/09/22 11:51:00;;;;;;;10.70;2.40;;;15.90;99.90;;;;;;4904573;29;20405;-85
2022/09/22 11:53:42;;;;;;;7.72;2.42;;;15.90;99.90;;;;;;4939206;29;20428;-84
2022/09/22 11:56:39;;;;;;;6.90;2.40;;;16.00;99.90;;;;;;4951656;29;20406;-84
2022/09/22 11:59:36;;;;;;;7.47;2.40;;;15.90;99.90;;;;;;4951464;28;20419;-82
2022/09/22 12:02:25;;;;;;;10.00;2.60;;;15.90;99.90;;;;;;4926091;29;20388;-79
2022/09/22 12:05:03;;;;;;;8.95;2.65;;;15.90;99.90;;;;;;4943081;29;20406;-84
2022/09/22 12:07:36;;;;;;;7.70;2.40;;;15.90;99.90;;;;;;5002845;28;20472;-81
2022/09/22 12:10:12;;;;;;;9.75;2.60;;;15.90;99.90;;;;;;5030609;28;20389;-80
2022/09/22 12:12:45;;;;;;;8.50;2.50;;;15.90;99.90;;;;;;5029260;28;20397;-83
2022/09/22 12:16:06;;;;;;;9.05;2.58;;;15.80;99.90;;;;;;5022308;28;20397;-85
2022/09/22 12:18:41;;;;;;;7.80;2.58;;;15.90;99.90;;;;;;4982688;28;20445;-79
2022/09/22 12:21:33;;;;;;;10.18;2.78;;;15.90;99.90;;;;;;4989271;28;20393;-79
2022/09/22 12:24:07;;;;;;;8.48;2.95;;;15.80;99.90;;;;;;4990645;28;20440;-84
2022/09/22 12:26:39;;;;;;;7.72;2.90;;;15.90;99.90;;;;;;4999895;28;20412;-77
2022/09/22 12:29:30;;;;;;;9.18;3.17;;;15.90;99.90;;;;;;4986133;28;20531;-82
2022/09/22 12:31:58;;;;;;;10.93;3.90;;;15.90;99.90;;;;;;4976001;28;20575;-83
2022/09/22 12:34:38;;;;;;;12.90;4.85;;;15.80;99.90;;;;;;4988984;28;20385;-84
2022/09/22 12:37:30;;;;;;;10.52;5.43;;;15.90;99.90;;;;;;4982427;28;20893;-80
2022/09/22 12:40:21;;;;;;;12.27;6.10;;;15.90;99.90;;;;;;4989521;28;20389;-83
2022/09/22 12:42:51;;;;;;;11.93;6.25;;;15.80;99.90;;;;;;4989250;28;20389;-84
2022/09/22 12:45:40;;;;;;;11.88;5.75;;;15.80;99.90;;;;;;4988856;28;20423;-84
2022/09/22 12:48:36;;;;;;;13.95;5.95;;;15.80;99.90;;;;;;4987259;28;20500;-84
2022/09/22 12:51:25;;;;;;;11.68;4.85;;;15.80;99.90;;;;;;4984897;28;20869;-78
2022/09/22 12:54:11;;;;;;;9.63;4.72;;;15.80;99.90;;;;;;5030691;28;20440;-80
2022/09/22 12:56:44;;;;;;;9.48;4.20;;;15.80;99.90;;;;;;5031160;28;20707;-77
2022/09/22 12:59:35;;;;;;;12.02;4.03;;;15.80;99.90;;;;;;5031251;28;20393;-83
2022/09/22 13:02:16;;;;;;;9.10;3.90;;;15.70;99.90;;;;;;5031474;28;20419;-76
2022/09/22 13:05:03;;;;;;;9.02;4.00;;;15.70;99.90;;;;;;5031620;28;20385;-84
2022/09/22 13:07:37;;;;;;;10.50;4.28;;;15.70;99.90;;;;;;4976737;28;20516;-79
2022/09/22 13:10:22;;;;;;;12.30;4.20;;;15.70;99.90;;;;;;4969017;28;20400;-85
2022/09/22 13:13:01;;;;;;;11.18;4.35;;;15.70;99.90;;;;;;4977423;28;20836;-86
2022/09/22 13:15:48;;;;;;;10.03;4.70;;;15.60;99.90;;;;;;4979857;28;20870;-82
2022/09/22 13:18:42;;;;;;;11.02;4.45;;;15.60;99.90;;;;;;4964347;28;20434;-78
2022/09/22 13:21:15;;;;;;;13.60;4.35;;;15.50;99.90;;;;;;4987539;28;20374;-80
2022/09/22 13:23:54;;;;;;;10.63;4.63;;;15.50;99.90;;;;;;4988052;28;20397;-76
2022/09/22 13:26:28;;;;;;;9.63;4.38;;;15.50;99.90;;;;;;4985488;28;20422;-77
2022/09/22 13:29:20;;;;;;;10.68;4.35;;;15.50;99.90;;;;;;4983262;28;20362;-78
2022/09/22 13:31:53;;;;;;;9.80;4.10;;;15.50;99.90;;;;;;4975646;28;20417;-82
2022/09/22 13:34:33;;;;;;;12.18;4.32;;;15.40;99.90;;;;;;4971189;28;20518;-79
2022/09/22 13:37:25;;;;;;;9.35;3.80;;;15.40;99.90;;;;;;4961981;28;20498;-75
2022/09/22 13:39:54;;;;;;;9.20;3.60;;;15.40;99.90;;;;;;4955604;28;20853;-84
2022/09/22 13:42:31;;;;;;;8.48;3.53;;;15.40;99.90;;;;;;4966143;28;20484;-85
2022/09/22 13:45:17;;;;;;;11.02;3.40;;;15.40;99.90;;;;;;5009207;28;20377;-77
2022/09/22 13:47:46;;;;;;;10.30;3.50;;;15.40;99.90;;;;;;5029828;28;20851;-80
2022/09/22 13:50:20;;;;;;;9.07;3.33;;;15.40;99.90;;;;;;5029976;28;20410;-81